sensor_id;sensor_type;location;lat;lon;timestamp;pressure;altitude;pressure_sealevel;temperature;humidity
25080;BME280;13071;48.868;9.996;2023-02-17T00:02:16;97356.47;;;7.76;71.80
25080;BME280;13071;48.868;9.996;2023-02-17T00:04:43;97357.06;;;7.73;71.87
25080;BME280;13071;48.868;9.996;2023-02-17T00:07:09;97357.31;;;7.90;71.14
25080;BME280;13071;48.868;9.996;2023-02-17T00:09:36;97357.75;;;7.97;71.27
25080;BME280;13071;48.868;9.996;2023-02-17T00:12:03;97357.31;;;7.90;71.56
25080;BME280;13071;48.868;9.996;2023-02-17T00:14:30;97354.25;;;7.97;71.35
25080;BME280;13071;48.868;9.996;2023-02-17T00:16:56;97345.38;;;8.10;69.78
25080;BME280;13071;48.868;9.996;2023-02-17T00:19:24;97340.31;;;8.08;69.61
25080;BME280;13071;48.868;9.996;2023-02-17T00:21:53;97334.22;;;8.03;70.00
25080;BME280;13071;48.868;9.996;2023-02-17T00:24:20;97332.09;;;8.00;69.82
25080;BME280;13071;48.868;9.996;2023-02-17T00:26:47;97336.91;;;8.03;69.61
25080;BME280;13071;48.868;9.996;2023-02-17T00:29:14;97334.28;;;7.98;69.68
25080;BME280;13071;48.868;9.996;2023-02-17T00:31:41;97326.13;;;8.03;69.42
25080;BME280;13071;48.868;9.996;2023-02-17T00:34:07;97332.63;;;8.15;69.07
25080;BME280;13071;48.868;9.996;2023-02-17T00:36:35;97332.22;;;8.08;69.38
25080;BME280;13071;48.868;9.996;2023-02-17T00:39:03;97322.53;;;8.07;69.36
25080;BME280;13071;48.868;9.996;2023-02-17T00:41:30;97328.63;;;8.13;69.42
25080;BME280;13071;48.868;9.996;2023-02-17T00:43:57;97332.50;;;8.07;69.44
25080;BME280;13071;48.868;9.996;2023-02-17T00:46:25;97329.25;;;8.23;69.19
25080;BME280;13071;48.868;9.996;2023-02-17T00:48:52;97337.00;;;8.11;68.94
25080;BME280;13071;48.868;9.996;2023-02-17T00:51:19;97331.16;;;8.23;69.46
25080;BME280;13071;48.868;9.996;2023-02-17T00:53:47;97336.22;;;8.11;69.53
25080;BME280;13071;48.868;9.996;2023-02-17T00:56:14;97331.34;;;8.13;69.57
25080;BME280;13071;48.868;9.996;2023-02-17T00:58:40;97331.41;;;8.08;69.48
25080;BME280;13071;48.868;9.996;2023-02-17T01:01:08;97337.72;;;8.17;69.55
25080;BME280;13071;48.868;9.996;2023-02-17T01:03:35;97337.31;;;8.10;69.69
25080;BME280;13071;48.868;9.996;2023-02-17T01:06:04;97332.69;;;7.97;70.52
25080;BME280;13071;48.868;9.996;2023-02-17T01:08:31;97323.72;;;8.01;70.28
25080;BME280;13071;48.868;9.996;2023-02-17T01:10:59;97334.78;;;8.00;70.34
25080;BME280;13071;48.868;9.996;2023-02-17T01:13:26;97326.13;;;8.16;70.36
25080;BME280;13071;48.868;9.996;2023-02-17T01:15:53;97329.03;;;8.20;70.52
25080;BME280;13071;48.868;9.996;2023-02-17T01:18:22;97330.25;;;8.14;70.32
25080;BME280;13071;48.868;9.996;2023-02-17T01:20:49;97330.00;;;8.10;70.75
25080;BME280;13071;48.868;9.996;2023-02-17T01:23:16;97321.47;;;8.22;70.53
25080;BME280;13071;48.868;9.996;2023-02-17T01:25:44;97318.91;;;8.31;70.37
25080;BME280;13071;48.868;9.996;2023-02-17T01:28:14;97325.13;;;8.12;70.93
25080;BME280;13071;48.868;9.996;2023-02-17T01:30:41;97308.47;;;8.24;70.58
25080;BME280;13071;48.868;9.996;2023-02-17T01:33:08;97307.69;;;8.23;70.45
25080;BME280;13071;48.868;9.996;2023-02-17T01:35:34;97306.09;;;8.22;70.59
25080;BME280;13071;48.868;9.996;2023-02-17T01:38:01;97310.00;;;8.30;70.02
25080;BME280;13071;48.868;9.996;2023-02-17T01:40:27;97316.72;;;8.33;70.72
25080;BME280;13071;48.868;9.996;2023-02-17T01:42:54;97306.63;;;8.38;69.89
25080;BME280;13071;48.868;9.996;2023-02-17T01:45:38;97301.09;;;8.30;70.09
25080;BME280;13071;48.868;9.996;2023-02-17T01:48:09;97292.44;;;8.33;70.19
25080;BME280;13071;48.868;9.996;2023-02-17T01:50:39;97294.63;;;8.31;70.37
25080;BME280;13071;48.868;9.996;2023-02-17T01:53:09;97287.94;;;8.42;70.40
25080;BME280;13071;48.868;9.996;2023-02-17T01:55:40;97287.03;;;8.33;70.57
25080;BME280;13071;48.868;9.996;2023-02-17T01:58:10;97287.44;;;8.40;70.05
25080;BME280;13071;48.868;9.996;2023-02-17T02:00:39;97292.78;;;8.26;70.27
25080;BME280;13071;48.868;9.996;2023-02-17T02:03:08;97286.59;;;8.25;70.83
25080;BME280;13071;48.868;9.996;2023-02-17T02:05:37;97280.91;;;8.13;71.50
25080;BME280;13071;48.868;9.996;2023-02-17T02:08:04;97267.13;;;8.29;71.28
25080;BME280;13071;48.868;9.996;2023-02-17T02:10:31;97275.75;;;8.31;70.44
25080;BME280;13071;48.868;9.996;2023-02-17T02:12:57;97273.81;;;8.17;71.24
25080;BME280;13071;48.868;9.996;2023-02-17T02:15:26;97270.84;;;8.46;70.20
25080;BME280;13071;48.868;9.996;2023-02-17T02:21:17;97264.44;;;8.29;70.98
25080;BME280;13071;48.868;9.996;2023-02-17T02:23:57;97254.16;;;8.44;70.29
25080;BME280;13071;48.868;9.996;2023-02-17T02:30:02;97254.75;;;8.55;70.33
25080;BME280;13071;48.868;9.996;2023-02-17T02:32:46;97242.69;;;8.52;70.67
25080;BME280;13071;48.868;9.996;2023-02-17T02:35:17;97239.88;;;8.44;69.90
25080;BME280;13071;48.868;9.996;2023-02-17T02:37:49;97238.38;;;8.51;69.62
25080;BME280;13071;48.868;9.996;2023-02-17T02:40:23;97234.19;;;8.45;69.95
25080;BME280;13071;48.868;9.996;2023-02-17T02:42:53;97238.28;;;8.43;70.29
25080;BME280;13071;48.868;9.996;2023-02-17T02:45:20;97232.69;;;8.39;70.77
25080;BME280;13071;48.868;9.996;2023-02-17T02:47:50;97230.91;;;8.48;70.53
25080;BME280;13071;48.868;9.996;2023-02-17T02:50:20;97232.19;;;8.37;70.39
25080;BME280;13071;48.868;9.996;2023-02-17T02:52:59;97239.28;;;8.47;70.68
25080;BME280;13071;48.868;9.996;2023-02-17T02:55:41;97240.78;;;8.53;70.36
25080;BME280;13071;48.868;9.996;2023-02-17T02:58:14;97236.88;;;8.45;70.52
25080;BME280;13071;48.868;9.996;2023-02-17T03:00:49;97236.59;;;8.47;70.72
25080;BME280;13071;48.868;9.996;2023-02-17T03:03:25;97241.69;;;8.35;71.28
25080;BME280;13071;48.868;9.996;2023-02-17T03:05:58;97237.88;;;8.49;70.53
25080;BME280;13071;48.868;9.996;2023-02-17T03:08:33;97232.69;;;8.53;70.20
25080;BME280;13071;48.868;9.996;2023-02-17T03:11:02;97231.16;;;8.60;70.35
25080;BME280;13071;48.868;9.996;2023-02-17T03:13:31;97233.78;;;8.52;70.10
25080;BME280;13071;48.868;9.996;2023-02-17T03:15:58;97230.38;;;8.46;70.71
25080;BME280;13071;48.868;9.996;2023-02-17T03:18:26;97229.97;;;8.39;70.78
25080;BME280;13071;48.868;9.996;2023-02-17T03:20:55;97227.59;;;8.38;71.16
25080;BME280;13071;48.868;9.996;2023-02-17T03:23:24;97231.59;;;8.40;71.03
25080;BME280;13071;48.868;9.996;2023-02-17T03:25:51;97228.38;;;8.52;71.00
25080;BME280;13071;48.868;9.996;2023-02-17T03:28:17;97226.88;;;8.46;70.84
25080;BME280;13071;48.868;9.996;2023-02-17T03:30:44;97234.69;;;8.47;70.55
25080;BME280;13071;48.868;9.996;2023-02-17T03:33:10;97230.31;;;8.38;70.72
25080;BME280;13071;48.868;9.996;2023-02-17T03:35:38;97226.47;;;8.39;70.85
25080;BME280;13071;48.868;9.996;2023-02-17T03:38:05;97218.03;;;8.32;71.16
25080;BME280;13071;48.868;9.996;2023-02-17T03:40:31;97219.63;;;8.33;71.59
25080;BME280;13071;48.868;9.996;2023-02-17T03:42:58;97206.44;;;8.31;71.43
25080;BME280;13071;48.868;9.996;2023-02-17T03:45:25;97212.78;;;8.21;71.69
25080;BME280;13071;48.868;9.996;2023-02-17T03:47:51;97209.91;;;8.18;71.96
25080;BME280;13071;48.868;9.996;2023-02-17T03:50:18;97209.81;;;8.37;71.74
25080;BME280;13071;48.868;9.996;2023-02-17T03:52:46;97206.41;;;8.17;71.80
25080;BME280;13071;48.868;9.996;2023-02-17T03:55:12;97205.31;;;8.18;72.27
25080;BME280;13071;48.868;9.996;2023-02-17T03:57:39;97214.59;;;8.26;71.93
25080;BME280;13071;48.868;9.996;2023-02-17T04:00:07;97210.09;;;8.08;72.69
25080;BME280;13071;48.868;9.996;2023-02-17T04:02:33;97212.91;;;8.16;72.43
25080;BME280;13071;48.868;9.996;2023-02-17T04:05:00;97213.41;;;8.18;72.42
25080;BME280;13071;48.868;9.996;2023-02-17T04:07:27;97215.31;;;8.32;72.41
25080;BME280;13071;48.868;9.996;2023-02-17T04:09:55;97217.78;;;8.14;73.05
25080;BME280;13071;48.868;9.996;2023-02-17T04:12:21;97221.50;;;8.18;73.26
25080;BME280;13071;48.868;9.996;2023-02-17T04:14:48;97222.59;;;8.45;72.47
25080;BME280;13071;48.868;9.996;2023-02-17T04:17:14;97218.41;;;8.39;72.49
25080;BME280;13071;48.868;9.996;2023-02-17T04:19:41;97218.59;;;8.56;72.25
25080;BME280;13071;48.868;9.996;2023-02-17T04:22:08;97221.41;;;8.37;72.52
25080;BME280;13071;48.868;9.996;2023-02-17T04:24:34;97217.00;;;8.41;72.79
25080;BME280;13071;48.868;9.996;2023-02-17T04:27:03;97219.31;;;8.34;73.20
25080;BME280;13071;48.868;9.996;2023-02-17T04:29:30;97215.09;;;8.28;73.31
25080;BME280;13071;48.868;9.996;2023-02-17T04:31:57;97224.19;;;8.46;73.28
25080;BME280;13071;48.868;9.996;2023-02-17T04:34:24;97221.00;;;8.44;73.40
25080;BME280;13071;48.868;9.996;2023-02-17T04:36:50;97222.00;;;8.48;73.25
25080;BME280;13071;48.868;9.996;2023-02-17T04:39:17;97230.22;;;8.43;73.68
25080;BME280;13071;48.868;9.996;2023-02-17T04:41:44;97227.19;;;8.31;74.26
25080;BME280;13071;48.868;9.996;2023-02-17T04:44:11;97229.31;;;8.34;74.36
25080;BME280;13071;48.868;9.996;2023-02-17T04:46:38;97223.00;;;8.38;74.40
25080;BME280;13071;48.868;9.996;2023-02-17T04:49:05;97224.59;;;8.39;74.89
25080;BME280;13071;48.868;9.996;2023-02-17T04:51:31;97215.31;;;8.45;74.69
25080;BME280;13071;48.868;9.996;2023-02-17T04:53:58;97224.38;;;8.49;74.82
25080;BME280;13071;48.868;9.996;2023-02-17T04:56:24;97219.50;;;8.51;74.55
25080;BME280;13071;48.868;9.996;2023-02-17T04:58:51;97226.28;;;8.49;74.61
25080;BME280;13071;48.868;9.996;2023-02-17T05:01:19;97222.38;;;8.55;74.98
25080;BME280;13071;48.868;9.996;2023-02-17T05:03:45;97221.69;;;8.49;75.00
25080;BME280;13071;48.868;9.996;2023-02-17T05:06:12;97218.19;;;8.49;75.10
25080;BME280;13071;48.868;9.996;2023-02-17T05:08:38;97217.53;;;8.43;75.72
25080;BME280;13071;48.868;9.996;2023-02-17T05:11:05;97214.41;;;8.36;75.80
25080;BME280;13071;48.868;9.996;2023-02-17T05:13:31;97212.78;;;8.49;75.78
25080;BME280;13071;48.868;9.996;2023-02-17T05:15:58;97221.38;;;8.51;75.41
25080;BME280;13071;48.868;9.996;2023-02-17T05:18:26;97210.69;;;8.59;75.66
25080;BME280;13071;48.868;9.996;2023-02-17T05:20:53;97207.50;;;8.57;75.44
25080;BME280;13071;48.868;9.996;2023-02-17T05:23:19;97207.50;;;8.44;76.09
25080;BME280;13071;48.868;9.996;2023-02-17T05:25:46;97202.31;;;8.47;75.85
25080;BME280;13071;48.868;9.996;2023-02-17T05:28:12;97201.53;;;8.47;75.92
25080;BME280;13071;48.868;9.996;2023-02-17T05:30:39;97212.91;;;8.44;76.43
25080;BME280;13071;48.868;9.996;2023-02-17T05:33:05;97213.41;;;8.46;76.40
25080;BME280;13071;48.868;9.996;2023-02-17T05:35:34;97215.59;;;8.44;76.66
25080;BME280;13071;48.868;9.996;2023-02-17T05:38:01;97218.19;;;8.49;76.66
25080;BME280;13071;48.868;9.996;2023-02-17T05:40:28;97214.91;;;8.52;76.67
25080;BME280;13071;48.868;9.996;2023-02-17T05:42:54;97219.31;;;8.48;76.80
25080;BME280;13071;48.868;9.996;2023-02-17T05:45:21;97218.59;;;8.56;76.70
25080;BME280;13071;48.868;9.996;2023-02-17T05:47:47;97227.78;;;8.41;76.85
25080;BME280;13071;48.868;9.996;2023-02-17T05:50:14;97216.91;;;8.46;77.04
25080;BME280;13071;48.868;9.996;2023-02-17T05:52:42;97214.09;;;8.51;76.86
25080;BME280;13071;48.868;9.996;2023-02-17T05:55:08;97222.81;;;8.48;77.21
25080;BME280;13071;48.868;9.996;2023-02-17T05:57:35;97229.38;;;8.56;76.71
25080;BME280;13071;48.868;9.996;2023-02-17T06:00:03;97222.56;;;8.58;76.43
25080;BME280;13071;48.868;9.996;2023-02-17T06:02:30;97222.88;;;8.57;76.79
25080;BME280;13071;48.868;9.996;2023-02-17T06:04:56;97228.75;;;8.59;76.81
25080;BME280;13071;48.868;9.996;2023-02-17T06:07:23;97238.38;;;8.51;77.06
25080;BME280;13071;48.868;9.996;2023-02-17T06:09:51;97226.56;;;8.61;76.92
25080;BME280;13071;48.868;9.996;2023-02-17T06:12:17;97243.16;;;8.54;76.99
25080;BME280;13071;48.868;9.996;2023-02-17T06:14:44;97249.97;;;8.52;77.62
25080;BME280;13071;48.868;9.996;2023-02-17T06:17:10;97240.88;;;8.48;77.32
25080;BME280;13071;48.868;9.996;2023-02-17T06:19:37;97239.00;;;8.48;77.72
25080;BME280;13071;48.868;9.996;2023-02-17T06:22:04;97242.78;;;8.47;77.51
25080;BME280;13071;48.868;9.996;2023-02-17T06:24:30;97238.47;;;8.60;77.85
25080;BME280;13071;48.868;9.996;2023-02-17T06:26:59;97247.66;;;8.59;77.14
25080;BME280;13071;48.868;9.996;2023-02-17T06:29:26;97249.16;;;8.65;77.43
25080;BME280;13071;48.868;9.996;2023-02-17T06:31:53;97248.84;;;8.66;77.77
25080;BME280;13071;48.868;9.996;2023-02-17T06:34:19;97244.16;;;8.45;78.33
25080;BME280;13071;48.868;9.996;2023-02-17T06:36:46;97244.88;;;8.50;78.60
25080;BME280;13071;48.868;9.996;2023-02-17T06:39:12;97235.19;;;8.63;78.20
25080;BME280;13071;48.868;9.996;2023-02-17T06:41:39;97245.28;;;8.57;78.39
25080;BME280;13071;48.868;9.996;2023-02-17T06:44:08;97245.34;;;8.66;78.42
25080;BME280;13071;48.868;9.996;2023-02-17T06:46:35;97242.97;;;8.51;78.75
25080;BME280;13071;48.868;9.996;2023-02-17T06:49:01;97247.75;;;8.68;78.61
25080;BME280;13071;48.868;9.996;2023-02-17T06:51:28;97241.56;;;8.67;78.55
25080;BME280;13071;48.868;9.996;2023-02-17T06:53:55;97243.94;;;8.68;78.72
25080;BME280;13071;48.868;9.996;2023-02-17T06:56:21;97247.84;;;8.49;79.64
25080;BME280;13071;48.868;9.996;2023-02-17T06:58:48;97248.16;;;8.61;79.18
25080;BME280;13071;48.868;9.996;2023-02-17T07:01:17;97250.66;;;8.71;79.04
25080;BME280;13071;48.868;9.996;2023-02-17T07:03:45;97260.34;;;8.72;79.07
25080;BME280;13071;48.868;9.996;2023-02-17T07:06:12;97254.72;;;8.68;79.15
25080;BME280;13071;48.868;9.996;2023-02-17T07:08:39;97266.13;;;8.79;79.15
25080;BME280;13071;48.868;9.996;2023-02-17T07:11:07;97250.91;;;8.83;78.93
25080;BME280;13071;48.868;9.996;2023-02-17T07:13:34;97254.00;;;8.90;78.77
25080;BME280;13071;48.868;9.996;2023-02-17T07:16:01;97257.63;;;8.86;79.73
25080;BME280;13071;48.868;9.996;2023-02-17T07:18:29;97259.22;;;8.87;79.75
25080;BME280;13071;48.868;9.996;2023-02-17T07:20:55;97263.72;;;8.91;79.97
25080;BME280;13071;48.868;9.996;2023-02-17T07:23:22;97263.41;;;8.93;80.18
25080;BME280;13071;48.868;9.996;2023-02-17T07:25:50;97264.91;;;8.85;80.35
25080;BME280;13071;48.868;9.996;2023-02-17T07:28:16;97266.22;;;8.88;79.89
25080;BME280;13071;48.868;9.996;2023-02-17T07:30:43;97260.09;;;8.96;79.60
25080;BME280;13071;48.868;9.996;2023-02-17T07:33:10;97259.91;;;8.92;79.80
25080;BME280;13071;48.868;9.996;2023-02-17T07:35:41;97256.31;;;8.97;79.52
25080;BME280;13071;48.868;9.996;2023-02-17T07:38:09;97260.91;;;8.96;79.19
25080;BME280;13071;48.868;9.996;2023-02-17T07:40:35;97258.19;;;8.96;79.44
25080;BME280;13071;48.868;9.996;2023-02-17T07:43:02;97257.25;;;9.15;78.48
25080;BME280;13071;48.868;9.996;2023-02-17T07:45:28;97262.63;;;9.15;79.06
25080;BME280;13071;48.868;9.996;2023-02-17T07:47:55;97254.84;;;9.13;78.63
25080;BME280;13071;48.868;9.996;2023-02-17T07:50:22;97258.66;;;9.12;78.41
25080;BME280;13071;48.868;9.996;2023-02-17T07:52:50;97255.44;;;9.10;78.79
25080;BME280;13071;48.868;9.996;2023-02-17T07:55:17;97264.25;;;9.16;78.07
25080;BME280;13071;48.868;9.996;2023-02-17T07:57:43;97261.53;;;9.16;78.11
25080;BME280;13071;48.868;9.996;2023-02-17T08:00:11;97263.31;;;9.20;78.29
25080;BME280;13071;48.868;9.996;2023-02-17T08:02:38;97270.00;;;9.23;78.11
25080;BME280;13071;48.868;9.996;2023-02-17T08:05:04;97284.31;;;9.23;78.46
25080;BME280;13071;48.868;9.996;2023-02-17T08:07:31;97287.22;;;9.27;78.56
25080;BME280;13071;48.868;9.996;2023-02-17T08:09:59;97281.31;;;9.25;78.40
25080;BME280;13071;48.868;9.996;2023-02-17T08:12:43;97282.84;;;9.17;78.33
25080;BME280;13071;48.868;9.996;2023-02-17T08:15:32;97271.72;;;9.19;78.58
25080;BME280;13071;48.868;9.996;2023-02-17T08:17:59;97271.44;;;9.20;78.66
25080;BME280;13071;48.868;9.996;2023-02-17T08:20:29;97274.81;;;9.26;77.91
25080;BME280;13071;48.868;9.996;2023-02-17T08:22:55;97281.19;;;9.30;78.35
25080;BME280;13071;48.868;9.996;2023-02-17T08:25:23;97285.63;;;9.26;77.96
25080;BME280;13071;48.868;9.996;2023-02-17T08:27:50;97284.81;;;9.25;78.40
25080;BME280;13071;48.868;9.996;2023-02-17T08:30:16;97283.72;;;9.26;78.12
25080;BME280;13071;48.868;9.996;2023-02-17T08:32:43;97283.09;;;9.29;78.27
25080;BME280;13071;48.868;9.996;2023-02-17T08:35:11;97290.72;;;9.27;78.40
25080;BME280;13071;48.868;9.996;2023-02-17T08:37:38;97289.22;;;9.21;78.49
25080;BME280;13071;48.868;9.996;2023-02-17T08:40:06;97293.91;;;9.29;78.11
25080;BME280;13071;48.868;9.996;2023-02-17T08:42:34;97288.13;;;9.22;78.42
25080;BME280;13071;48.868;9.996;2023-02-17T08:45:00;97283.91;;;9.30;78.60
25080;BME280;13071;48.868;9.996;2023-02-17T08:47:27;97288.38;;;9.34;78.32
25080;BME280;13071;48.868;9.996;2023-02-17T08:49:53;97292.75;;;9.44;77.99
25080;BME280;13071;48.868;9.996;2023-02-17T08:52:20;97287.66;;;9.42;77.35
25080;BME280;13071;48.868;9.996;2023-02-17T08:54:47;97279.25;;;9.44;78.37
25080;BME280;13071;48.868;9.996;2023-02-17T08:57:13;97280.72;;;9.50;78.05
25080;BME280;13071;48.868;9.996;2023-02-17T08:59:41;97282.88;;;9.39;78.22
25080;BME280;13071;48.868;9.996;2023-02-17T09:02:10;97280.03;;;9.44;78.39
25080;BME280;13071;48.868;9.996;2023-02-17T09:04:36;97286.00;;;9.55;78.48
25080;BME280;13071;48.868;9.996;2023-02-17T09:07:03;97285.09;;;9.60;77.95
25080;BME280;13071;48.868;9.996;2023-02-17T09:09:29;97286.34;;;9.62;77.84
25080;BME280;13071;48.868;9.996;2023-02-17T09:11:57;97278.63;;;9.69;78.23
25080;BME280;13071;48.868;9.996;2023-02-17T09:14:24;97295.34;;;9.71;78.38
25080;BME280;13071;48.868;9.996;2023-02-17T09:16:53;97299.50;;;9.77;78.21
25080;BME280;13071;48.868;9.996;2023-02-17T09:19:21;97296.28;;;9.67;78.60
25080;BME280;13071;48.868;9.996;2023-02-17T09:21:48;97302.94;;;9.69;78.68
25080;BME280;13071;48.868;9.996;2023-02-17T09:24:15;97304.28;;;9.58;79.30
25080;BME280;13071;48.868;9.996;2023-02-17T09:26:42;97304.63;;;9.57;79.25
25080;BME280;13071;48.868;9.996;2023-02-17T09:29:08;97310.03;;;9.57;79.85
25080;BME280;13071;48.868;9.996;2023-02-17T09:31:35;97297.03;;;9.67;79.39
25080;BME280;13071;48.868;9.996;2023-02-17T09:34:04;97304.72;;;9.74;79.54
25080;BME280;13071;48.868;9.996;2023-02-17T09:36:32;97300.19;;;9.83;79.90
25080;BME280;13071;48.868;9.996;2023-02-17T09:38:59;97303.69;;;9.83;79.70
25080;BME280;13071;48.868;9.996;2023-02-17T09:41:37;97302.59;;;9.84;79.52
25080;BME280;13071;48.868;9.996;2023-02-17T09:44:05;97309.47;;;9.90;80.18
25080;BME280;13071;48.868;9.996;2023-02-17T09:46:36;97305.06;;;10.03;80.13
25080;BME280;13071;48.868;9.996;2023-02-17T09:49:10;97317.94;;;9.97;80.55
25080;BME280;13071;48.868;9.996;2023-02-17T09:51:42;97309.63;;;9.94;80.75
25080;BME280;13071;48.868;9.996;2023-02-17T09:54:15;97312.16;;;9.90;81.15
25080;BME280;13071;48.868;9.996;2023-02-17T09:56:45;97317.59;;;9.90;80.93
25080;BME280;13071;48.868;9.996;2023-02-17T09:59:16;97315.97;;;9.89;81.17
25080;BME280;13071;48.868;9.996;2023-02-17T10:01:46;97311.91;;;10.01;81.65
25080;BME280;13071;48.868;9.996;2023-02-17T10:04:19;97319.03;;;9.96;82.31
25080;BME280;13071;48.868;9.996;2023-02-17T10:06:50;97322.22;;;9.98;82.26
25080;BME280;13071;48.868;9.996;2023-02-17T10:09:23;97319.56;;;10.07;82.05
25080;BME280;13071;48.868;9.996;2023-02-17T10:11:55;97317.13;;;9.97;81.71
25080;BME280;13071;48.868;9.996;2023-02-17T10:14:28;97319.13;;;10.14;81.94
25080;BME280;13071;48.868;9.996;2023-02-17T10:16:59;97319.78;;;10.11;82.62
25080;BME280;13071;48.868;9.996;2023-02-17T10:19:32;97315.16;;;10.11;82.42
25080;BME280;13071;48.868;9.996;2023-02-17T10:22:04;97305.09;;;10.25;82.84
25080;BME280;13071;48.868;9.996;2023-02-17T10:24:32;97302.41;;;10.12;83.60
25080;BME280;13071;48.868;9.996;2023-02-17T10:27:13;97317.69;;;10.30;82.98
25080;BME280;13071;48.868;9.996;2023-02-17T10:29:48;97316.63;;;10.48;82.60
25080;BME280;13071;48.868;9.996;2023-02-17T10:32:21;97315.41;;;10.63;82.05
25080;BME280;13071;48.868;9.996;2023-02-17T10:34:59;97312.13;;;10.83;81.70
25080;BME280;13071;48.868;9.996;2023-02-17T10:37:35;97301.31;;;10.83;81.59
25080;BME280;13071;48.868;9.996;2023-02-17T10:40:11;97291.47;;;11.04;81.43
25080;BME280;13071;48.868;9.996;2023-02-17T10:42:39;97290.97;;;10.94;81.55
25080;BME280;13071;48.868;9.996;2023-02-17T10:45:10;97287.97;;;11.12;80.68
25080;BME280;13071;48.868;9.996;2023-02-17T10:47:39;97290.53;;;11.09;80.94
25080;BME280;13071;48.868;9.996;2023-02-17T10:50:16;97286.72;;;11.10;80.87
25080;BME280;13071;48.868;9.996;2023-02-17T10:52:44;97297.50;;;11.01;81.21
25080;BME280;13071;48.868;9.996;2023-02-17T10:55:24;97283.22;;;11.09;81.45
25080;BME280;13071;48.868;9.996;2023-02-17T10:57:59;97291.03;;;11.19;81.21
25080;BME280;13071;48.868;9.996;2023-02-17T11:00:30;97284.66;;;11.41;80.98
25080;BME280;13071;48.868;9.996;2023-02-17T11:02:56;97283.03;;;11.40;79.90
25080;BME280;13071;48.868;9.996;2023-02-17T11:05:27;97280.66;;;11.47;80.37
25080;BME280;13071;48.868;9.996;2023-02-17T11:07:56;97275.88;;;11.61;80.42
25080;BME280;13071;48.868;9.996;2023-02-17T11:10:27;97279.06;;;11.63;79.84
25080;BME280;13071;48.868;9.996;2023-02-17T11:12:54;97280.69;;;11.73;79.81
25080;BME280;13071;48.868;9.996;2023-02-17T11:15:24;97276.06;;;11.74;79.56
25080;BME280;13071;48.868;9.996;2023-02-17T11:17:52;97277.16;;;11.81;80.06
25080;BME280;13071;48.868;9.996;2023-02-17T11:20:31;97269.63;;;11.69;79.81
25080;BME280;13071;48.868;9.996;2023-02-17T11:23:02;97272.03;;;11.71;79.63
25080;BME280;13071;48.868;9.996;2023-02-17T11:25:30;97262.47;;;11.65;79.66
25080;BME280;13071;48.868;9.996;2023-02-17T11:27:58;97280.97;;;11.63;79.80
25080;BME280;13071;48.868;9.996;2023-02-17T11:30:27;97277.97;;;11.47;80.69
25080;BME280;13071;48.868;9.996;2023-02-17T11:32:55;97266.47;;;11.50;80.44
25080;BME280;13071;48.868;9.996;2023-02-17T11:35:24;97269.19;;;11.42;80.65
25080;BME280;13071;48.868;9.996;2023-02-17T11:37:59;97264.41;;;11.47;81.03
25080;BME280;13071;48.868;9.996;2023-02-17T11:40:29;97260.56;;;11.57;81.04
25080;BME280;13071;48.868;9.996;2023-02-17T11:42:57;97258.81;;;11.52;80.99
25080;BME280;13071;48.868;9.996;2023-02-17T11:45:26;97243.19;;;11.41;80.99
25080;BME280;13071;48.868;9.996;2023-02-17T11:48:10;97252.28;;;11.45;81.08
25080;BME280;13071;48.868;9.996;2023-02-17T11:50:47;97247.03;;;11.48;81.67
25080;BME280;13071;48.868;9.996;2023-02-17T11:53:25;97251.16;;;11.46;82.12
25080;BME280;13071;48.868;9.996;2023-02-17T11:56:03;97249.28;;;11.29;82.40
25080;BME280;13071;48.868;9.996;2023-02-17T11:58:43;97254.84;;;11.33;83.08
25080;BME280;13071;48.868;9.996;2023-02-17T12:01:20;97259.31;;;11.29;82.48
25080;BME280;13071;48.868;9.996;2023-02-17T12:04:23;97263.28;;;11.31;83.20
25080;BME280;13071;48.868;9.996;2023-02-17T12:06:59;97263.28;;;11.31;82.99
25080;BME280;13071;48.868;9.996;2023-02-17T12:09:36;97253.38;;;11.35;83.23
25080;BME280;13071;48.868;9.996;2023-02-17T12:12:14;97247.50;;;11.42;83.58
25080;BME280;13071;48.868;9.996;2023-02-17T12:14:55;97264.41;;;11.47;83.12
25080;BME280;13071;48.868;9.996;2023-02-17T12:17:33;97257.38;;;11.46;83.82
25080;BME280;13071;48.868;9.996;2023-02-17T12:20:07;97254.66;;;11.46;84.03
25080;BME280;13071;48.868;9.996;2023-02-17T12:22:49;97257.72;;;11.53;83.71
25080;BME280;13071;48.868;9.996;2023-02-17T12:25:26;97248.94;;;11.48;83.71
25080;BME280;13071;48.868;9.996;2023-02-17T12:28:11;97254.84;;;11.58;84.17
25080;BME280;13071;48.868;9.996;2023-02-17T12:30:52;97248.59;;;11.66;83.53
25080;BME280;13071;48.868;9.996;2023-02-17T12:33:34;97239.03;;;11.78;83.22
25080;BME280;13071;48.868;9.996;2023-02-17T12:36:07;97250.03;;;11.81;83.05
25080;BME280;13071;48.868;9.996;2023-02-17T12:38:38;97249.00;;;12.11;82.86
25080;BME280;13071;48.868;9.996;2023-02-17T12:41:11;97250.06;;;12.19;82.07
25080;BME280;13071;48.868;9.996;2023-02-17T12:43:41;97259.19;;;12.15;82.43
25080;BME280;13071;48.868;9.996;2023-02-17T12:46:11;97243.53;;;12.20;82.46
25080;BME280;13071;48.868;9.996;2023-02-17T12:48:42;97248.03;;;12.16;82.27
25080;BME280;13071;48.868;9.996;2023-02-17T12:51:17;97239.75;;;12.13;82.75
25080;BME280;13071;48.868;9.996;2023-02-17T12:53:47;97249.78;;;12.12;82.87
25080;BME280;13071;48.868;9.996;2023-02-17T12:56:36;97252.19;;;12.14;82.58
25080;BME280;13071;48.868;9.996;2023-02-17T12:59:11;97243.06;;;12.18;82.93
25080;BME280;13071;48.868;9.996;2023-02-17T13:01:48;97245.63;;;12.23;83.10
25080;BME280;13071;48.868;9.996;2023-02-17T13:04:17;97239.03;;;12.33;83.22
25080;BME280;13071;48.868;9.996;2023-02-17T13:06:49;97238.63;;;12.14;83.56
25080;BME280;13071;48.868;9.996;2023-02-17T13:09:24;97244.66;;;12.19;83.65
25080;BME280;13071;48.868;9.996;2023-02-17T13:12:06;97244.53;;;12.07;84.01
25080;BME280;13071;48.868;9.996;2023-02-17T13:14:38;97237.56;;;11.97;84.51
25080;BME280;13071;48.868;9.996;2023-02-17T13:17:05;97235.63;;;11.98;84.75
25080;BME280;13071;48.868;9.996;2023-02-17T13:19:33;97235.28;;;11.99;84.57
25080;BME280;13071;48.868;9.996;2023-02-17T13:22:00;97228.78;;;11.92;84.56
25080;BME280;13071;48.868;9.996;2023-02-17T13:24:32;97235.81;;;11.93;84.85
25080;BME280;13071;48.868;9.996;2023-02-17T13:27:10;97236.09;;;12.00;84.43